sensor_id;sensor_type;location;lat;lon;timestamp;temperature;humidity
9772;DHT22;4925;52.588;13.370;2022-07-01T00:01:43;22.10;99.90
9772;DHT22;4925;52.588;13.370;2022-07-01T00:04:10;22.00;99.90
9772;DHT22;4925;52.588;13.370;2022-07-01T00:06:36;22.10;99.90
9772;DHT22;4925;52.588;13.370;2022-07-01T00:09:02;22.00;99.90
9772;DHT22;4925;52.588;13.370;2022-07-01T00:11:30;22.00;99.90
9772;DHT22;4925;52.588;13.370;2022-07-01T00:13:56;22.00;99.90
9772;DHT22;4925;52.588;13.370;2022-07-01T00:16:21;22.00;99.90
9772;DHT22;4925;52.588;13.370;2022-07-01T00:18:47;22.80;99.90
9772;DHT22;4925;52.588;13.370;2022-07-01T00:21:12;22.00;99.90
9772;DHT22;4925;52.588;13.370;2022-07-01T00:23:38;21.90;99.90
9772;DHT22;4925;52.588;13.370;2022-07-01T00:26:03;21.90;99.90
9772;DHT22;4925;52.588;13.370;2022-07-01T00:28:29;21.80;99.90
9772;DHT22;4925;52.588;13.370;2022-07-01T00:30:54;21.80;99.90
9772;DHT22;4925;52.588;13.370;2022-07-01T00:33:20;21.80;99.90
9772;DHT22;4925;52.588;13.370;2022-07-01T00:35:45;21.90;99.90
9772;DHT22;4925;52.588;13.370;2022-07-01T00:38:11;21.80;99.90
9772;DHT22;4925;52.588;13.370;2022-07-01T00:40:36;21.80;99.90
9772;DHT22;4925;52.588;13.370;2022-07-01T00:43:02;21.80;99.90
9772;DHT22;4925;52.588;13.370;2022-07-01T00:45:28;21.80;99.90
9772;DHT22;4925;52.588;13.370;2022-07-01T00:47:53;21.70;99.90
9772;DHT22;4925;52.588;13.370;2022-07-01T00:50:19;22.50;99.90
9772;DHT22;4925;52.588;13.370;2022-07-01T00:52:45;21.60;99.90
9772;DHT22;4925;52.588;13.370;2022-07-01T00:55:13;21.60;99.90
9772;DHT22;4925;52.588;13.370;2022-07-01T00:57:41;21.60;99.90
9772;DHT22;4925;52.588;13.370;2022-07-01T01:00:10;21.60;99.90
9772;DHT22;4925;52.588;13.370;2022-07-01T01:02:37;21.60;99.90
9772;DHT22;4925;52.588;13.370;2022-07-01T01:05:04;21.60;99.90
9772;DHT22;4925;52.588;13.370;2022-07-01T01:07:31;21.50;99.90
9772;DHT22;4925;52.588;13.370;2022-07-01T01:09:58;20.70;99.90
9772;DHT22;4925;52.588;13.370;2022-07-01T01:12:28;21.50;99.90
9772;DHT22;4925;52.588;13.370;2022-07-01T01:14:55;21.80;99.90
9772;DHT22;4925;52.588;13.370;2022-07-01T01:17:21;21.50;99.90
9772;DHT22;4925;52.588;13.370;2022-07-01T01:19:48;21.50;99.90
9772;DHT22;4925;52.588;13.370;2022-07-01T01:22:15;21.50;99.90
9772;DHT22;4925;52.588;13.370;2022-07-01T01:24:42;21.50;99.90
9772;DHT22;4925;52.588;13.370;2022-07-01T01:27:08;21.40;99.90
9772;DHT22;4925;52.588;13.370;2022-07-01T01:29:35;21.50;99.90
9772;DHT22;4925;52.588;13.370;2022-07-01T01:32:02;21.40;99.90
9772;DHT22;4925;52.588;13.370;2022-07-01T01:34:27;21.40;99.90
9772;DHT22;4925;52.588;13.370;2022-07-01T01:36:53;21.40;99.90
9772;DHT22;4925;52.588;13.370;2022-07-01T01:39:20;21.50;99.90
9772;DHT22;4925;52.588;13.370;2022-07-01T01:41:46;21.40;99.90
9772;DHT22;4925;52.588;13.370;2022-07-01T01:44:12;21.40;99.90
9772;DHT22;4925;52.588;13.370;2022-07-01T01:46:37;21.40;99.90
9772;DHT22;4925;52.588;13.370;2022-07-01T01:49:04;21.30;99.90
9772;DHT22;4925;52.588;13.370;2022-07-01T01:51:30;21.30;99.90
9772;DHT22;4925;52.588;13.370;2022-07-01T01:53:56;21.30;99.90
9772;DHT22;4925;52.588;13.370;2022-07-01T01:56:23;21.30;99.90
9772;DHT22;4925;52.588;13.370;2022-07-01T01:58:49;21.30;99.90
9772;DHT22;4925;52.588;13.370;2022-07-01T02:01:16;21.30;99.90
9772;DHT22;4925;52.588;13.370;2022-07-01T02:03:43;21.30;99.90
9772;DHT22;4925;52.588;13.370;2022-07-01T02:06:09;21.30;99.90
9772;DHT22;4925;52.588;13.370;2022-07-01T02:08:36;21.20;99.90
9772;DHT22;4925;52.588;13.370;2022-07-01T02:13:28;21.10;99.90
9772;DHT22;4925;52.588;13.370;2022-07-01T02:15:54;21.10;99.90
9772;DHT22;4925;52.588;13.370;2022-07-01T02:18:19;21.10;99.90
9772;DHT22;4925;52.588;13.370;2022-07-01T02:20:45;21.10;99.90
9772;DHT22;4925;52.588;13.370;2022-07-01T02:23:10;21.00;99.90
9772;DHT22;4925;52.588;13.370;2022-07-01T02:25:36;21.10;99.90
9772;DHT22;4925;52.588;13.370;2022-07-01T02:28:02;21.10;99.90
9772;DHT22;4925;52.588;13.370;2022-07-01T02:30:28;21.10;99.90
9772;DHT22;4925;52.588;13.370;2022-07-01T02:32:54;21.10;99.90
9772;DHT22;4925;52.588;13.370;2022-07-01T02:35:20;21.40;99.90
9772;DHT22;4925;52.588;13.370;2022-07-01T02:37:46;21.10;99.90
9772;DHT22;4925;52.588;13.370;2022-07-01T02:40:12;21.00;99.90
9772;DHT22;4925;52.588;13.370;2022-07-01T02:42:39;21.70;99.90
9772;DHT22;4925;52.588;13.370;2022-07-01T02:45:06;21.00;99.90
9772;DHT22;4925;52.588;13.370;2022-07-01T02:47:33;21.00;99.90
9772;DHT22;4925;52.588;13.370;2022-07-01T02:49:59;21.00;99.90
9772;DHT22;4925;52.588;13.370;2022-07-01T02:52:24;21.00;99.90
9772;DHT22;4925;52.588;13.370;2022-07-01T02:54:50;21.00;99.90
9772;DHT22;4925;52.588;13.370;2022-07-01T02:59:41;21.00;99.90
9772;DHT22;4925;52.588;13.370;2022-07-01T03:02:07;21.00;99.90
9772;DHT22;4925;52.588;13.370;2022-07-01T03:04:32;21.00;99.90
9772;DHT22;4925;52.588;13.370;2022-07-01T03:09:24;21.10;99.90
9772;DHT22;4925;52.588;13.370;2022-07-01T03:11:49;21.10;99.90
9772;DHT22;4925;52.588;13.370;2022-07-01T03:14:15;21.10;99.90
9772;DHT22;4925;52.588;13.370;2022-07-01T03:16:40;21.10;99.90
9772;DHT22;4925;52.588;13.370;2022-07-01T03:19:06;21.10;99.90
9772;DHT22;4925;52.588;13.370;2022-07-01T03:21:32;21.20;99.90
9772;DHT22;4925;52.588;13.370;2022-07-01T03:23:58;21.20;99.90
9772;DHT22;4925;52.588;13.370;2022-07-01T03:26:24;21.20;99.90
9772;DHT22;4925;52.588;13.370;2022-07-01T03:28:49;21.20;99.90
9772;DHT22;4925;52.588;13.370;2022-07-01T03:31:14;21.20;99.90
9772;DHT22;4925;52.588;13.370;2022-07-01T03:33:41;21.20;99.90
9772;DHT22;4925;52.588;13.370;2022-07-01T03:36:06;21.30;99.90
9772;DHT22;4925;52.588;13.370;2022-07-01T03:38:32;21.30;99.90
9772;DHT22;4925;52.588;13.370;2022-07-01T03:40:57;21.30;99.90
9772;DHT22;4925;52.588;13.370;2022-07-01T03:43:23;21.30;99.90
9772;DHT22;4925;52.588;13.370;2022-07-01T03:45:48;21.30;99.90
9772;DHT22;4925;52.588;13.370;2022-07-01T03:48:13;21.40;99.90
9772;DHT22;4925;52.588;13.370;2022-07-01T03:50:39;21.40;99.90
9772;DHT22;4925;52.588;13.370;2022-07-01T03:53:04;21.40;99.90
9772;DHT22;4925;52.588;13.370;2022-07-01T03:55:48;21.50;99.90
9772;DHT22;4925;52.588;13.370;2022-07-01T03:58:14;21.50;99.90
9772;DHT22;4925;52.588;13.370;2022-07-01T04:00:39;21.60;99.90
9772;DHT22;4925;52.588;13.370;2022-07-01T04:03:07;21.60;99.90
9772;DHT22;4925;52.588;13.370;2022-07-01T04:05:33;21.60;99.90
9772;DHT22;4925;52.588;13.370;2022-07-01T04:08:01;21.70;99.90
9772;DHT22;4925;52.588;13.370;2022-07-01T04:10:33;21.70;99.90
9772;DHT22;4925;52.588;13.370;2022-07-01T04:13:00;21.80;99.90
9772;DHT22;4925;52.588;13.370;2022-07-01T04:15:26;21.80;99.90
9772;DHT22;4925;52.588;13.370;2022-07-01T04:17:52;21.90;99.90
9772;DHT22;4925;52.588;13.370;2022-07-01T04:20:17;22.00;99.90
9772;DHT22;4925;52.588;13.370;2022-07-01T04:22:43;22.00;99.90
9772;DHT22;4925;52.588;13.370;2022-07-01T04:25:08;22.10;99.90
9772;DHT22;4925;52.588;13.370;2022-07-01T04:27:34;22.10;99.90
9772;DHT22;4925;52.588;13.370;2022-07-01T04:29:59;22.20;99.90
9772;DHT22;4925;52.588;13.370;2022-07-01T04:32:27;22.30;99.90
9772;DHT22;4925;52.588;13.370;2022-07-01T04:34:53;22.40;99.90
9772;DHT22;4925;52.588;13.370;2022-07-01T04:37:18;22.30;99.90
9772;DHT22;4925;52.588;13.370;2022-07-01T04:39:45;22.40;99.90
9772;DHT22;4925;52.588;13.370;2022-07-01T04:42:10;25.10;99.90
9772;DHT22;4925;52.588;13.370;2022-07-01T04:44:37;22.60;99.90
9772;DHT22;4925;52.588;13.370;2022-07-01T04:47:03;22.80;99.90
9772;DHT22;4925;52.588;13.370;2022-07-01T04:49:30;22.80;99.90
9772;DHT22;4925;52.588;13.370;2022-07-01T04:51:56;22.90;99.90
9772;DHT22;4925;52.588;13.370;2022-07-01T04:54:22;23.00;99.90
9772;DHT22;4925;52.588;13.370;2022-07-01T04:56:48;23.00;99.90
9772;DHT22;4925;52.588;13.370;2022-07-01T04:59:15;23.10;99.90
9772;DHT22;4925;52.588;13.370;2022-07-01T05:01:41;23.10;99.90
9772;DHT22;4925;52.588;13.370;2022-07-01T05:04:07;23.30;99.90
9772;DHT22;4925;52.588;13.370;2022-07-01T05:06:33;25.90;99.90
9772;DHT22;4925;52.588;13.370;2022-07-01T05:08:59;23.50;99.90
9772;DHT22;4925;52.588;13.370;2022-07-01T05:11:25;23.50;99.90
9772;DHT22;4925;52.588;13.370;2022-07-01T05:13:50;23.60;99.90
9772;DHT22;4925;52.588;13.370;2022-07-01T05:16:16;23.80;99.90
9772;DHT22;4925;52.588;13.370;2022-07-01T05:18:41;23.80;99.90
9772;DHT22;4925;52.588;13.370;2022-07-01T05:21:25;23.90;99.90
9772;DHT22;4925;52.588;13.370;2022-07-01T05:24:09;23.90;99.90
9772;DHT22;4925;52.588;13.370;2022-07-01T05:26:35;24.10;99.90
9772;DHT22;4925;52.588;13.370;2022-07-01T05:29:01;24.10;99.90
9772;DHT22;4925;52.588;13.370;2022-07-01T05:31:27;24.20;99.90
9772;DHT22;4925;52.588;13.370;2022-07-01T05:33:52;24.30;99.90
9772;DHT22;4925;52.588;13.370;2022-07-01T05:36:18;24.50;99.90
9772;DHT22;4925;52.588;13.370;2022-07-01T05:38:43;24.70;99.90
9772;DHT22;4925;52.588;13.370;2022-07-01T05:41:09;24.70;99.90
9772;DHT22;4925;52.588;13.370;2022-07-01T05:43:35;24.80;99.90
9772;DHT22;4925;52.588;13.370;2022-07-01T05:46:01;24.80;99.90
9772;DHT22;4925;52.588;13.370;2022-07-01T05:48:26;24.90;99.90
9772;DHT22;4925;52.588;13.370;2022-07-01T05:50:52;24.90;99.90
9772;DHT22;4925;52.588;13.370;2022-07-01T05:53:18;25.00;99.90
9772;DHT22;4925;52.588;13.370;2022-07-01T05:55:44;25.00;99.90
9772;DHT22;4925;52.588;13.370;2022-07-01T05:58:10;25.00;99.90
9772;DHT22;4925;52.588;13.370;2022-07-01T06:00:37;25.10;99.90
9772;DHT22;4925;52.588;13.370;2022-07-01T06:03:03;25.10;99.90
9772;DHT22;4925;52.588;13.370;2022-07-01T06:07:57;25.10;99.90
9772;DHT22;4925;52.588;13.370;2022-07-01T06:10:24;25.20;99.90
9772;DHT22;4925;52.588;13.370;2022-07-01T06:12:50;25.20;99.90
9772;DHT22;4925;52.588;13.370;2022-07-01T06:15:15;25.30;99.90
9772;DHT22;4925;52.588;13.370;2022-07-01T06:17:41;25.30;99.90
9772;DHT22;4925;52.588;13.370;2022-07-01T06:20:08;25.30;99.90
9772;DHT22;4925;52.588;13.370;2022-07-01T06:22:33;25.30;99.90
9772;DHT22;4925;52.588;13.370;2022-07-01T06:25:00;25.40;99.90
9772;DHT22;4925;52.588;13.370;2022-07-01T06:27:26;25.30;99.90
9772;DHT22;4925;52.588;13.370;2022-07-01T06:29:52;25.30;99.90
9772;DHT22;4925;52.588;13.370;2022-07-01T06:32:18;25.20;99.90
9772;DHT22;4925;52.588;13.370;2022-07-01T06:34:43;25.20;99.90
9772;DHT22;4925;52.588;13.370;2022-07-01T06:37:09;25.20;99.90
9772;DHT22;4925;52.588;13.370;2022-07-01T06:39:35;25.00;99.90
9772;DHT22;4925;52.588;13.370;2022-07-01T06:42:00;25.00;99.90
9772;DHT22;4925;52.588;13.370;2022-07-01T06:44:26;24.90;99.90
9772;DHT22;4925;52.588;13.370;2022-07-01T06:46:52;25.00;99.90
9772;DHT22;4925;52.588;13.370;2022-07-01T06:49:17;25.00;99.90
9772;DHT22;4925;52.588;13.370;2022-07-01T06:51:43;25.00;99.90
9772;DHT22;4925;52.588;13.370;2022-07-01T06:56:35;25.30;99.90
9772;DHT22;4925;52.588;13.370;2022-07-01T06:59:00;25.40;99.90
9772;DHT22;4925;52.588;13.370;2022-07-01T07:01:27;25.60;99.90
9772;DHT22;4925;52.588;13.370;2022-07-01T07:03:53;25.70;99.90
9772;DHT22;4925;52.588;13.370;2022-07-01T07:06:18;25.70;99.90
9772;DHT22;4925;52.588;13.370;2022-07-01T07:08:44;25.40;99.90
9772;DHT22;4925;52.588;13.370;2022-07-01T07:11:10;25.80;99.90
9772;DHT22;4925;52.588;13.370;2022-07-01T07:13:36;25.80;99.90
9772;DHT22;4925;52.588;13.370;2022-07-01T07:16:02;26.00;99.90
9772;DHT22;4925;52.588;13.370;2022-07-01T07:20:53;26.00;99.90
9772;DHT22;4925;52.588;13.370;2022-07-01T07:23:19;25.90;99.90
9772;DHT22;4925;52.588;13.370;2022-07-01T07:25:45;26.00;99.90
9772;DHT22;4925;52.588;13.370;2022-07-01T07:28:12;25.90;99.90
9772;DHT22;4925;52.588;13.370;2022-07-01T07:30:38;26.20;99.90
9772;DHT22;4925;52.588;13.370;2022-07-01T07:33:03;26.00;99.90
9772;DHT22;4925;52.588;13.370;2022-07-01T07:35:29;26.20;99.90
9772;DHT22;4925;52.588;13.370;2022-07-01T07:37:55;26.20;99.90
9772;DHT22;4925;52.588;13.370;2022-07-01T07:40:22;26.30;99.90
9772;DHT22;4925;52.588;13.370;2022-07-01T07:42:48;26.20;99.90
9772;DHT22;4925;52.588;13.370;2022-07-01T07:45:14;26.10;99.90
9772;DHT22;4925;52.588;13.370;2022-07-01T07:47:48;26.10;99.90
9772;DHT22;4925;52.588;13.370;2022-07-01T07:50:14;26.00;99.90
9772;DHT22;4925;52.588;13.370;2022-07-01T07:52:40;26.00;99.90
9772;DHT22;4925;52.588;13.370;2022-07-01T07:55:08;26.10;99.90
9772;DHT22;4925;52.588;13.370;2022-07-01T07:57:36;26.20;99.90
9772;DHT22;4925;52.588;13.370;2022-07-01T08:00:03;26.30;99.90
9772;DHT22;4925;52.588;13.370;2022-07-01T08:02:29;26.40;99.90
9772;DHT22;4925;52.588;13.370;2022-07-01T08:04:54;26.50;99.90
9772;DHT22;4925;52.588;13.370;2022-07-01T08:07:20;26.50;99.90
9772;DHT22;4925;52.588;13.370;2022-07-01T08:09:45;26.50;99.90
9772;DHT22;4925;52.588;13.370;2022-07-01T08:12:14;26.60;99.90
9772;DHT22;4925;52.588;13.370;2022-07-01T08:14:40;26.50;99.90
9772;DHT22;4925;52.588;13.370;2022-07-01T08:17:05;26.40;99.90
9772;DHT22;4925;52.588;13.370;2022-07-01T08:19:31;26.30;99.90
9772;DHT22;4925;52.588;13.370;2022-07-01T08:21:57;26.30;99.90
9772;DHT22;4925;52.588;13.370;2022-07-01T08:24:22;26.20;99.90
9772;DHT22;4925;52.588;13.370;2022-07-01T08:26:48;26.20;99.90
9772;DHT22;4925;52.588;13.370;2022-07-01T08:29:13;26.20;99.90
9772;DHT22;4925;52.588;13.370;2022-07-01T08:31:39;26.20;99.90
9772;DHT22;4925;52.588;13.370;2022-07-01T08:34:05;26.20;99.90
9772;DHT22;4925;52.588;13.370;2022-07-01T08:36:30;26.30;99.90
9772;DHT22;4925;52.588;13.370;2022-07-01T08:38:56;26.40;99.90
9772;DHT22;4925;52.588;13.370;2022-07-01T08:41:23;26.50;99.90
9772;DHT22;4925;52.588;13.370;2022-07-01T08:43:48;26.60;99.90
9772;DHT22;4925;52.588;13.370;2022-07-01T08:46:14;26.80;99.90
9772;DHT22;4925;52.588;13.370;2022-07-01T08:48:43;26.80;99.90
9772;DHT22;4925;52.588;13.370;2022-07-01T08:51:09;26.80;99.90
9772;DHT22;4925;52.588;13.370;2022-07-01T08:53:35;27.00;99.90
9772;DHT22;4925;52.588;13.370;2022-07-01T08:56:01;27.10;99.90
9772;DHT22;4925;52.588;13.370;2022-07-01T08:58:47;27.20;99.90
9772;DHT22;4925;52.588;13.370;2022-07-01T09:03:38;27.30;99.90
9772;DHT22;4925;52.588;13.370;2022-07-01T09:06:21;27.30;99.90
9772;DHT22;4925;52.588;13.370;2022-07-01T09:08:47;27.50;99.90
9772;DHT22;4925;52.588;13.370;2022-07-01T09:11:17;27.60;99.90
9772;DHT22;4925;52.588;13.370;2022-07-01T09:13:44;27.90;99.90
9772;DHT22;4925;52.588;13.370;2022-07-01T09:16:12;28.20;99.90
9772;DHT22;4925;52.588;13.370;2022-07-01T09:18:37;28.60;99.90
9772;DHT22;4925;52.588;13.370;2022-07-01T09:21:07;28.60;99.90
9772;DHT22;4925;52.588;13.370;2022-07-01T09:23:33;28.70;99.90
9772;DHT22;4925;52.588;13.370;2022-07-01T09:25:59;28.70;99.90
9772;DHT22;4925;52.588;13.370;2022-07-01T09:28:26;28.30;99.90
9772;DHT22;4925;52.588;13.370;2022-07-01T09:30:54;28.30;99.90
9772;DHT22;4925;52.588;13.370;2022-07-01T09:33:25;27.90;99.90
9772;DHT22;4925;52.588;13.370;2022-07-01T09:35:52;27.30;99.90
9772;DHT22;4925;52.588;13.370;2022-07-01T09:38:22;26.40;99.90
9772;DHT22;4925;52.588;13.370;2022-07-01T09:40:53;25.50;99.90
9772;DHT22;4925;52.588;13.370;2022-07-01T09:43:30;24.40;99.90
9772;DHT22;4925;52.588;13.370;2022-07-01T09:46:01;24.30;99.90
9772;DHT22;4925;52.588;13.370;2022-07-01T09:48:43;23.50;99.90
9772;DHT22;4925;52.588;13.370;2022-07-01T09:51:13;23.50;99.90
9772;DHT22;4925;52.588;13.370;2022-07-01T09:53:39;23.20;99.90
9772;DHT22;4925;52.588;13.370;2022-07-01T09:56:05;22.90;99.90
9772;DHT22;4925;52.588;13.370;2022-07-01T09:58:31;22.30;99.90
9772;DHT22;4925;52.588;13.370;2022-07-01T10:00:58;22.20;99.90
9772;DHT22;4925;52.588;13.370;2022-07-01T10:03:26;22.00;99.90
9772;DHT22;4925;52.588;13.370;2022-07-01T10:05:56;21.70;99.90
9772;DHT22;4925;52.588;13.370;2022-07-01T10:11:24;21.40;99.90
9772;DHT22;4925;52.588;13.370;2022-07-01T10:13:52;21.30;99.90
9772;DHT22;4925;52.588;13.370;2022-07-01T10:16:19;21.20;99.90
9772;DHT22;4925;52.588;13.370;2022-07-01T10:18:45;21.10;99.90
9772;DHT22;4925;52.588;13.370;2022-07-01T10:21:26;21.20;99.90
9772;DHT22;4925;52.588;13.370;2022-07-01T10:23:52;21.20;99.90
9772;DHT22;4925;52.588;13.370;2022-07-01T10:26:19;21.30;99.90
9772;DHT22;4925;52.588;13.370;2022-07-01T10:28:45;21.40;99.90
9772;DHT22;4925;52.588;13.370;2022-07-01T10:31:16;21.30;99.90
9772;DHT22;4925;52.588;13.370;2022-07-01T10:36:27;21.00;99.90
9772;DHT22;4925;52.588;13.370;2022-07-01T10:41:58;21.20;99.90
9772;DHT22;4925;52.588;13.370;2022-07-01T10:44:25;21.20;99.90
9772;DHT22;4925;52.588;13.370;2022-07-01T10:46:58;22.10;99.90
9772;DHT22;4925;52.588;13.370;2022-07-01T10:52:12;20.60;99.90
9772;DHT22;4925;52.588;13.370;2022-07-01T10:57:19;20.40;99.90
9772;DHT22;4925;52.588;13.370;2022-07-01T10:59:46;20.20;99.90
9772;DHT22;4925;52.588;13.370;2022-07-01T11:02:37;20.20;99.90
9772;DHT22;4925;52.588;13.370;2022-07-01T11:05:04;20.10;99.90
9772;DHT22;4925;52.588;13.370;2022-07-01T11:07:34;20.00;99.90
9772;DHT22;4925;52.588;13.370;2022-07-01T11:10:01;19.90;99.90
9772;DHT22;4925;52.588;13.370;2022-07-01T11:12:28;19.90;99.90
9772;DHT22;4925;52.588;13.370;2022-07-01T11:14:55;19.90;99.90
9772;DHT22;4925;52.588;13.370;2022-07-01T11:17:22;19.80;99.90
9772;DHT22;4925;52.588;13.370;2022-07-01T11:19:50;19.60;99.90
9772;DHT22;4925;52.588;13.370;2022-07-01T11:22:24;19.80;99.90
9772;DHT22;4925;52.588;13.370;2022-07-01T11:24:57;19.70;99.90
9772;DHT22;4925;52.588;13.370;2022-07-01T11:27:24;19.50;99.90
9772;DHT22;4925;52.588;13.370;2022-07-01T11:30:03;19.30;99.90
9772;DHT22;4925;52.588;13.370;2022-07-01T11:32:35;19.10;99.90
9772;DHT22;4925;52.588;13.370;2022-07-01T11:35:03;18.30;99.90
9772;DHT22;4925;52.588;13.370;2022-07-01T11:37:49;19.00;99.90
9772;DHT22;4925;52.588;13.370;2022-07-01T11:40:34;19.00;99.90
9772;DHT22;4925;52.588;13.370;2022-07-01T11:42:59;19.10;99.90
9772;DHT22;4925;52.588;13.370;2022-07-01T11:45:26;19.10;99.90
9772;DHT22;4925;52.588;13.370;2022-07-01T11:47:52;19.00;99.90
9772;DHT22;4925;52.588;13.370;2022-07-01T11:50:18;19.10;99.90
9772;DHT22;4925;52.588;13.370;2022-07-01T11:52:45;19.00;99.90
9772;DHT22;4925;52.588;13.370;2022-07-01T11:55:10;19.00;99.90
9772;DHT22;4925;52.588;13.370;2022-07-01T11:57:36;19.00;99.90
9772;DHT22;4925;52.588;13.370;2022-07-01T12:00:12;19.00;99.90
9772;DHT22;4925;52.588;13.370;2022-07-01T12:02:38;19.10;99.90
9772;DHT22;4925;52.588;13.370;2022-07-01T12:05:05;19.20;99.90
9772;DHT22;4925;52.588;13.370;2022-07-01T12:07:31;19.30;99.90
9772;DHT22;4925;52.588;13.370;2022-07-01T12:09:57;19.30;99.90
9772;DHT22;4925;52.588;13.370;2022-07-01T12:12:23;19.30;99.90
9772;DHT22;4925;52.588;13.370;2022-07-01T12:14:58;19.10;99.90
9772;DHT22;4925;52.588;13.370;2022-07-01T12:17:25;18.90;99.90
9772;DHT22;4925;52.588;13.370;2022-07-01T12:19:52;18.90;99.90
9772;DHT22;4925;52.588;13.370;2022-07-01T12:22:20;18.80;99.90
9772;DHT22;4925;52.588;13.370;2022-07-01T12:24:47;18.90;99.90
9772;DHT22;4925;52.588;13.370;2022-07-01T12:27:13;19.10;99.90
9772;DHT22;4925;52.588;13.370;2022-07-01T12:32:13;19.50;99.90
9772;DHT22;4925;52.588;13.370;2022-07-01T12:34:44;19.70;99.90
9772;DHT22;4925;52.588;13.370;2022-07-01T12:37:18;19.80;99.90
9772;DHT22;4925;52.588;13.370;2022-07-01T12:39:50;19.80;99.90
9772;DHT22;4925;52.588;13.370;2022-07-01T12:42:25;19.70;99.90
9772;DHT22;4925;52.588;13.370;2022-07-01T12:44:52;19.60;99.90
9772;DHT22;4925;52.588;13.370;2022-07-01T12:47:25;19.60;99.90
9772;DHT22;4925;52.588;13.370;2022-07-01T12:50:21;19.50;99.90
9772;DHT22;4925;52.588;13.370;2022-07-01T12:57:58;19.20;99.90
9772;DHT22;4925;52.588;13.370;2022-07-01T13:00:29;19.20;99.90
9772;DHT22;4925;52.588;13.370;2022-07-01T13:02:58;19.30;99.90
9772;DHT22;4925;52.588;13.370;2022-07-01T13:05:24;19.20;99.90
9772;DHT22;4925;52.588;13.370;2022-07-01T13:07:50;19.20;99.90
9772;DHT22;4925;52.588;13.370;2022-07-01T13:10:17;19.30;99.90
9772;DHT22;4925;52.588;13.370;2022-07-01T13:12:44;19.30;99.90
9772;DHT22;4925;52.588;13.370;2022-07-01T13:15:10;19.20;99.90
9772;DHT22;4925;52.588;13.370;2022-07-01T13:17:36;19.20;99.90
9772;DHT22;4925;52.588;13.370;2022-07-01T13:20:02;19.20;99.90
9772;DHT22;4925;52.588;13.370;2022-07-01T13:22:28;19.10;99.90
9772;DHT22;4925;52.588;13.370;2022-07-01T13:24:53;19.10;99.90
9772;DHT22;4925;52.588;13.370;2022-07-01T13:27:19;19.20;99.90
9772;DHT22;4925;52.588;13.370;2022-07-01T13:29:44;19.40;99.90
9772;DHT22;4925;52.588;13.370;2022-07-01T13:32:10;19.30;99.90
9772;DHT22;4925;52.588;13.370;2022-07-01T13:34:36;19.30;99.90
9772;DHT22;4925;52.588;13.370;2022-07-01T13:37:02;19.40;99.90
9772;DHT22;4925;52.588;13.370;2022-07-01T13:39:27;19.50;99.90
9772;DHT22;4925;52.588;13.370;2022-07-01T13:41:53;19.50;99.90
9772;DHT22;4925;52.588;13.370;2022-07-01T13:44:21;19.40;99.90
9772;DHT22;4925;52.588;13.370;2022-07-01T13:46:46;19.50;99.90
9772;DHT22;4925;52.588;13.370;2022-07-01T13:49:12;19.50;99.90
9772;DHT22;4925;52.588;13.370;2022-07-01T13:51:37;19.60;99.90
9772;DHT22;4925;52.588;13.370;2022-07-01T13:54:03;19.50;99.90
9772;DHT22;4925;52.588;13.370;2022-07-01T13:56:28;19.50;99.90
9772;DHT22;4925;52.588;13.370;2022-07-01T13:58:54;19.50;99.90
9772;DHT22;4925;52.588;13.370;2022-07-01T14:01:20;19.50;99.90
9772;DHT22;4925;52.588;13.370;2022-07-01T14:03:48;19.50;99.90
9772;DHT22;4925;52.588;13.370;2022-07-01T14:06:14;19.50;99.90
9772;DHT22;4925;52.588;13.370;2022-07-01T14:08:40;19.60;99.90
9772;DHT22;4925;52.588;13.370;2022-07-01T14:11:05;19.60;99.90
9772;DHT22;4925;52.588;13.370;2022-07-01T14:13:31;19.60;99.90
9772;DHT22;4925;52.588;13.370;2022-07-01T14:15:57;19.50;99.90
9772;DHT22;4925;52.588;13.370;2022-07-01T14:18:22;19.30;99.90
9772;DHT22;4925;52.588;13.370;2022-07-01T14:20:48;19.30;99.90
9772;DHT22;4925;52.588;13.370;2022-07-01T14:23:13;19.30;99.90
9772;DHT22;4925;52.588;13.370;2022-07-01T14:25:39;19.30;99.90
9772;DHT22;4925;52.588;13.370;2022-07-01T14:28:06;19.20;99.90
9772;DHT22;4925;52.588;13.370;2022-07-01T14:30:32;19.10;99.90
9772;DHT22;4925;52.588;13.370;2022-07-01T14:32:57;19.10;99.90
9772;DHT22;4925;52.588;13.370;2022-07-01T14:35:23;19.00;99.90
9772;DHT22;4925;52.588;13.370;2022-07-01T14:37:48;18.90;99.90
9772;DHT22;4925;52.588;13.370;2022-07-01T14:40:14;18.90;99.90
9772;DHT22;4925;52.588;13.370;2022-07-01T14:42:39;18.80;99.90
9772;DHT22;4925;52.588;13.370;2022-07-01T14:45:08;18.80;99.90
9772;DHT22;4925;52.588;13.370;2022-07-01T14:47:34;18.80;99.90
9772;DHT22;4925;52.588;13.370;2022-07-01T14:49:59;18.70;99.90
9772;DHT22;4925;52.588;13.370;2022-07-01T14:52:25;18.80;99.90
9772;DHT22;4925;52.588;13.370;2022-07-01T14:54:51;18.70;99.90
9772;DHT22;4925;52.588;13.370;2022-07-01T14:57:19;19.70;99.90
9772;DHT22;4925;52.588;13.370;2022-07-01T14:59:45;18.50;99.90
9772;DHT22;4925;52.588;13.370;2022-07-01T15:02:10;18.50;99.90
9772;DHT22;4925;52.588;13.370;2022-07-01T15:04:36;18.40;99.90
9772;DHT22;4925;52.588;13.370;2022-07-01T15:07:02;18.40;99.90
9772;DHT22;4925;52.588;13.370;2022-07-01T15:09:27;18.40;99.90
9772;DHT22;4925;52.588;13.370;2022-07-01T15:11:53;18.50;99.90
9772;DHT22;4925;52.588;13.370;2022-07-01T15:14:18;18.20;99.90
9772;DHT22;4925;52.588;13.370;2022-07-01T15:16:44;18.10;99.90
9772;DHT22;4925;52.588;13.370;2022-07-01T15:19:10;18.80;99.90
9772;DHT22;4925;52.588;13.370;2022-07-01T15:21:36;18.10;99.90
9772;DHT22;4925;52.588;13.370;2022-07-01T15:24:02;18.10;99.90
9772;DHT22;4925;52.588;13.370;2022-07-01T15:26:28;18.00;99.90
9772;DHT22;4925;52.588;13.370;2022-07-01T15:28:54;18.10;99.90
9772;DHT22;4925;52.588;13.370;2022-07-01T15:31:19;18.00;99.90
9772;DHT22;4925;52.588;13.370;2022-07-01T15:33:45;18.10;99.90
9772;DHT22;4925;52.588;13.370;2022-07-01T15:36:11;19.20;99.90
9772;DHT22;4925;52.588;13.370;2022-07-01T15:38:37;18.00;99.90
9772;DHT22;4925;52.588;13.370;2022-07-01T15:41:03;18.00;99.90
9772;DHT22;4925;52.588;13.370;2022-07-01T15:43:28;17.90;99.90
9772;DHT22;4925;52.588;13.370;2022-07-01T15:45:55;17.90;99.90
9772;DHT22;4925;52.588;13.370;2022-07-01T15:50:47;17.90;99.90
9772;DHT22;4925;52.588;13.370;2022-07-01T15:53:15;17.90;99.90
9772;DHT22;4925;52.588;13.370;2022-07-01T15:55:40;18.00;99.90
9772;DHT22;4925;52.588;13.370;2022-07-01T15:58:12;18.10;99.90
9772;DHT22;4925;52.588;13.370;2022-07-01T16:00:43;18.20;99.90
9772;DHT22;4925;52.588;13.370;2022-07-01T16:03:11;18.20;99.90
9772;DHT22;4925;52.588;13.370;2022-07-01T16:05:38;18.00;99.90
9772;DHT22;4925;52.588;13.370;2022-07-01T16:08:06;18.10;99.90
9772;DHT22;4925;52.588;13.370;2022-07-01T16:10:45;18.10;99.90
9772;DHT22;4925;52.588;13.370;2022-07-01T16:13:16;18.00;99.90
9772;DHT22;4925;52.588;13.370;2022-07-01T16:15:46;18.00;99.90
9772;DHT22;4925;52.588;13.370;2022-07-01T16:18:12;18.00;99.90
9772;DHT22;4925;52.588;13.370;2022-07-01T16:20:41;18.00;99.90
9772;DHT22;4925;52.588;13.370;2022-07-01T16:23:09;18.10;99.90
9772;DHT22;4925;52.588;13.370;2022-07-01T16:25:37;18.10;99.90